sensor_id;sensor_type;location;lat;lon;timestamp;temperature;humidity
75769;DHT22;64379;48.888;8.330;2023-11-21T00:00:44;9.20;83.00
75769;DHT22;64379;48.888;8.330;2023-11-21T00:03:11;9.20;82.80
75769;DHT22;64379;48.888;8.330;2023-11-21T00:05:40;9.20;82.50
75769;DHT22;64379;48.888;8.330;2023-11-21T00:08:07;9.20;82.60
75769;DHT22;64379;48.888;8.330;2023-11-21T00:10:33;9.30;82.40
75769;DHT22;64379;48.888;8.330;2023-11-21T00:12:59;9.20;82.80
75769;DHT22;64379;48.888;8.330;2023-11-21T00:15:24;9.20;82.70
75769;DHT22;64379;48.888;8.330;2023-11-21T00:17:51;9.30;82.40
75769;DHT22;64379;48.888;8.330;2023-11-21T00:20:17;9.30;82.20
75769;DHT22;64379;48.888;8.330;2023-11-21T00:22:42;9.40;82.00
75769;DHT22;64379;48.888;8.330;2023-11-21T00:25:08;9.40;81.60
75769;DHT22;64379;48.888;8.330;2023-11-21T00:27:35;9.40;81.80
75769;DHT22;64379;48.888;8.330;2023-11-21T00:30:01;9.40;81.60
75769;DHT22;64379;48.888;8.330;2023-11-21T00:32:27;9.40;81.40
75769;DHT22;64379;48.888;8.330;2023-11-21T00:34:52;9.40;80.90
75769;DHT22;64379;48.888;8.330;2023-11-21T00:37:19;9.40;81.00
75769;DHT22;64379;48.888;8.330;2023-11-21T00:39:45;9.50;81.00
75769;DHT22;64379;48.888;8.330;2023-11-21T00:42:11;9.40;81.30
75769;DHT22;64379;48.888;8.330;2023-11-21T00:44:38;9.40;81.40
75769;DHT22;64379;48.888;8.330;2023-11-21T00:47:04;9.40;81.10
75769;DHT22;64379;48.888;8.330;2023-11-21T00:49:30;9.40;81.40
75769;DHT22;64379;48.888;8.330;2023-11-21T00:51:56;9.40;81.40
75769;DHT22;64379;48.888;8.330;2023-11-21T00:54:23;9.40;81.20
75769;DHT22;64379;48.888;8.330;2023-11-21T00:56:49;9.40;81.40
75769;DHT22;64379;48.888;8.330;2023-11-21T00:59:14;9.40;81.30
75769;DHT22;64379;48.888;8.330;2023-11-21T01:01:40;9.40;81.40
75769;DHT22;64379;48.888;8.330;2023-11-21T01:04:06;9.40;81.50
75769;DHT22;64379;48.888;8.330;2023-11-21T01:06:32;9.40;81.30
75769;DHT22;64379;48.888;8.330;2023-11-21T01:08:58;9.40;81.40
75769;DHT22;64379;48.888;8.330;2023-11-21T01:11:24;9.40;81.50
75769;DHT22;64379;48.888;8.330;2023-11-21T01:13:49;9.40;81.30
75769;DHT22;64379;48.888;8.330;2023-11-21T01:16:15;9.40;81.20
75769;DHT22;64379;48.888;8.330;2023-11-21T01:18:41;9.40;80.80
75769;DHT22;64379;48.888;8.330;2023-11-21T01:21:06;9.40;81.00
75769;DHT22;64379;48.888;8.330;2023-11-21T01:23:34;9.40;80.70
75769;DHT22;64379;48.888;8.330;2023-11-21T01:26:00;9.40;80.70
75769;DHT22;64379;48.888;8.330;2023-11-21T01:28:25;9.40;80.90
75769;DHT22;64379;48.888;8.330;2023-11-21T01:30:52;9.40;81.40
75769;DHT22;64379;48.888;8.330;2023-11-21T01:33:18;9.30;81.70
75769;DHT22;64379;48.888;8.330;2023-11-21T01:35:43;9.20;82.50
75769;DHT22;64379;48.888;8.330;2023-11-21T01:38:11;9.10;83.40
75769;DHT22;64379;48.888;8.330;2023-11-21T01:40:37;9.00;84.20
75769;DHT22;64379;48.888;8.330;2023-11-21T01:43:03;9.00;84.70
75769;DHT22;64379;48.888;8.330;2023-11-21T01:45:29;8.90;85.30
75769;DHT22;64379;48.888;8.330;2023-11-21T01:47:56;8.90;85.50
75769;DHT22;64379;48.888;8.330;2023-11-21T01:50:24;8.80;85.80
75769;DHT22;64379;48.888;8.330;2023-11-21T01:52:50;8.80;85.90
75769;DHT22;64379;48.888;8.330;2023-11-21T01:55:17;8.80;86.10
75769;DHT22;64379;48.888;8.330;2023-11-21T01:57:44;8.80;86.40
75769;DHT22;64379;48.888;8.330;2023-11-21T02:00:10;8.70;86.80
75769;DHT22;64379;48.888;8.330;2023-11-21T02:02:46;8.60;87.20
75769;DHT22;64379;48.888;8.330;2023-11-21T02:05:14;8.60;87.50
75769;DHT22;64379;48.888;8.330;2023-11-21T02:07:41;8.60;87.60
75769;DHT22;64379;48.888;8.330;2023-11-21T02:10:08;8.60;87.70
75769;DHT22;64379;48.888;8.330;2023-11-21T02:12:34;8.60;87.80
75769;DHT22;64379;48.888;8.330;2023-11-21T02:15:02;8.60;87.90
75769;DHT22;64379;48.888;8.330;2023-11-21T02:17:30;8.60;87.90
75769;DHT22;64379;48.888;8.330;2023-11-21T02:19:57;8.60;87.90
75769;DHT22;64379;48.888;8.330;2023-11-21T02:22:23;8.60;88.00
75769;DHT22;64379;48.888;8.330;2023-11-21T02:24:51;8.70;88.10
75769;DHT22;64379;48.888;8.330;2023-11-21T02:27:17;8.60;88.20
75769;DHT22;64379;48.888;8.330;2023-11-21T02:29:47;8.60;88.40
75769;DHT22;64379;48.888;8.330;2023-11-21T02:32:13;8.60;88.50
75769;DHT22;64379;48.888;8.330;2023-11-21T02:34:38;8.60;88.60
75769;DHT22;64379;48.888;8.330;2023-11-21T02:37:04;8.50;88.90
75769;DHT22;64379;48.888;8.330;2023-11-21T02:39:31;8.50;89.00
75769;DHT22;64379;48.888;8.330;2023-11-21T02:41:57;8.50;89.30
75769;DHT22;64379;48.888;8.330;2023-11-21T02:44:23;8.40;89.40
75769;DHT22;64379;48.888;8.330;2023-11-21T02:46:48;8.40;89.40
75769;DHT22;64379;48.888;8.330;2023-11-21T02:49:14;8.40;89.60
75769;DHT22;64379;48.888;8.330;2023-11-21T02:51:39;8.30;89.70
75769;DHT22;64379;48.888;8.330;2023-11-21T02:54:06;8.30;89.70
75769;DHT22;64379;48.888;8.330;2023-11-21T02:56:33;8.30;89.80
75769;DHT22;64379;48.888;8.330;2023-11-21T02:59:00;8.20;89.80
75769;DHT22;64379;48.888;8.330;2023-11-21T03:01:26;8.20;89.90
75769;DHT22;64379;48.888;8.330;2023-11-21T03:03:53;8.20;89.90
75769;DHT22;64379;48.888;8.330;2023-11-21T03:06:20;8.20;90.00
75769;DHT22;64379;48.888;8.330;2023-11-21T03:08:46;8.20;90.10
75769;DHT22;64379;48.888;8.330;2023-11-21T03:11:12;8.20;90.20
75769;DHT22;64379;48.888;8.330;2023-11-21T03:13:39;8.10;90.20
75769;DHT22;64379;48.888;8.330;2023-11-21T03:16:10;8.20;90.30
75769;DHT22;64379;48.888;8.330;2023-11-21T03:18:36;8.20;90.20
75769;DHT22;64379;48.888;8.330;2023-11-21T03:21:03;8.30;90.20
75769;DHT22;64379;48.888;8.330;2023-11-21T03:23:28;8.40;90.10
75769;DHT22;64379;48.888;8.330;2023-11-21T03:25:54;8.40;89.90
75769;DHT22;64379;48.888;8.330;2023-11-21T03:28:19;8.40;89.70
75769;DHT22;64379;48.888;8.330;2023-11-21T03:30:45;8.40;89.40
75769;DHT22;64379;48.888;8.330;2023-11-21T03:33:11;8.40;89.30
75769;DHT22;64379;48.888;8.330;2023-11-21T03:35:37;8.40;89.30
75769;DHT22;64379;48.888;8.330;2023-11-21T03:38:03;8.50;89.30
75769;DHT22;64379;48.888;8.330;2023-11-21T03:40:29;8.50;89.20
75769;DHT22;64379;48.888;8.330;2023-11-21T03:42:56;8.50;89.20
75769;DHT22;64379;48.888;8.330;2023-11-21T03:45:22;8.50;89.00
75769;DHT22;64379;48.888;8.330;2023-11-21T03:47:48;8.50;89.00
75769;DHT22;64379;48.888;8.330;2023-11-21T03:50:14;8.50;89.00
75769;DHT22;64379;48.888;8.330;2023-11-21T03:52:39;8.50;88.90
75769;DHT22;64379;48.888;8.330;2023-11-21T03:55:05;8.50;88.80
75769;DHT22;64379;48.888;8.330;2023-11-21T03:57:30;8.40;88.80
75769;DHT22;64379;48.888;8.330;2023-11-21T03:59:56;8.40;88.80
75769;DHT22;64379;48.888;8.330;2023-11-21T04:02:22;8.40;88.80
75769;DHT22;64379;48.888;8.330;2023-11-21T04:04:47;8.40;88.80
75769;DHT22;64379;48.888;8.330;2023-11-21T04:07:13;8.50;88.80
75769;DHT22;64379;48.888;8.330;2023-11-21T04:09:39;8.50;88.60
75769;DHT22;64379;48.888;8.330;2023-11-21T04:12:06;8.50;88.30
75769;DHT22;64379;48.888;8.330;2023-11-21T04:14:34;8.60;88.20
75769;DHT22;64379;48.888;8.330;2023-11-21T04:16:59;8.60;88.10
75769;DHT22;64379;48.888;8.330;2023-11-21T04:19:25;8.60;88.00
75769;DHT22;64379;48.888;8.330;2023-11-21T04:21:51;8.60;88.00
75769;DHT22;64379;48.888;8.330;2023-11-21T04:24:16;8.60;87.90
75769;DHT22;64379;48.888;8.330;2023-11-21T04:26:43;8.60;87.80
75769;DHT22;64379;48.888;8.330;2023-11-21T04:29:08;8.60;87.80
75769;DHT22;64379;48.888;8.330;2023-11-21T04:31:34;8.50;87.90
75769;DHT22;64379;48.888;8.330;2023-11-21T04:33:59;8.50;87.90
75769;DHT22;64379;48.888;8.330;2023-11-21T04:36:25;8.50;88.10
75769;DHT22;64379;48.888;8.330;2023-11-21T04:38:51;8.50;88.20
75769;DHT22;64379;48.888;8.330;2023-11-21T04:41:16;8.50;88.30
75769;DHT22;64379;48.888;8.330;2023-11-21T04:43:43;8.50;88.40
75769;DHT22;64379;48.888;8.330;2023-11-21T04:46:09;8.50;88.50
75769;DHT22;64379;48.888;8.330;2023-11-21T04:48:34;8.50;88.40
75769;DHT22;64379;48.888;8.330;2023-11-21T04:51:00;8.60;88.40
75769;DHT22;64379;48.888;8.330;2023-11-21T04:53:26;8.60;88.30
75769;DHT22;64379;48.888;8.330;2023-11-21T04:55:51;8.60;88.20
75769;DHT22;64379;48.888;8.330;2023-11-21T04:58:17;8.60;88.10
75769;DHT22;64379;48.888;8.330;2023-11-21T05:00:43;8.60;88.10
75769;DHT22;64379;48.888;8.330;2023-11-21T05:03:09;8.50;88.20
75769;DHT22;64379;48.888;8.330;2023-11-21T05:05:37;8.50;88.20
75769;DHT22;64379;48.888;8.330;2023-11-21T05:08:03;8.50;88.30
75769;DHT22;64379;48.888;8.330;2023-11-21T05:10:30;8.40;88.40
75769;DHT22;64379;48.888;8.330;2023-11-21T05:12:55;8.40;88.70
75769;DHT22;64379;48.888;8.330;2023-11-21T05:15:21;8.40;88.90
75769;DHT22;64379;48.888;8.330;2023-11-21T05:17:47;8.50;88.90
75769;DHT22;64379;48.888;8.330;2023-11-21T05:20:17;8.40;89.00
75769;DHT22;64379;48.888;8.330;2023-11-21T05:22:49;8.50;89.00
75769;DHT22;64379;48.888;8.330;2023-11-21T05:25:15;8.50;89.10
75769;DHT22;64379;48.888;8.330;2023-11-21T05:27:44;8.50;89.20
75769;DHT22;64379;48.888;8.330;2023-11-21T05:30:13;8.50;89.30
75769;DHT22;64379;48.888;8.330;2023-11-21T05:32:40;8.50;89.40
75769;DHT22;64379;48.888;8.330;2023-11-21T05:35:07;8.50;89.40
75769;DHT22;64379;48.888;8.330;2023-11-21T05:37:40;8.40;89.70
75769;DHT22;64379;48.888;8.330;2023-11-21T05:40:07;8.40;89.80
75769;DHT22;64379;48.888;8.330;2023-11-21T05:42:34;8.40;90.00
75769;DHT22;64379;48.888;8.330;2023-11-21T05:45:00;8.40;90.20
75769;DHT22;64379;48.888;8.330;2023-11-21T05:47:39;8.40;90.30
75769;DHT22;64379;48.888;8.330;2023-11-21T05:50:07;8.40;90.40
75769;DHT22;64379;48.888;8.330;2023-11-21T05:52:36;8.40;90.50
75769;DHT22;64379;48.888;8.330;2023-11-21T05:55:02;8.30;90.50
75769;DHT22;64379;48.888;8.330;2023-11-21T05:57:30;8.30;90.60
75769;DHT22;64379;48.888;8.330;2023-11-21T05:59:55;8.30;90.70
75769;DHT22;64379;48.888;8.330;2023-11-21T06:02:21;8.30;90.80
75769;DHT22;64379;48.888;8.330;2023-11-21T06:04:47;8.30;90.90
75769;DHT22;64379;48.888;8.330;2023-11-21T06:07:12;8.30;90.90
75769;DHT22;64379;48.888;8.330;2023-11-21T06:09:38;8.30;91.00
75769;DHT22;64379;48.888;8.330;2023-11-21T06:12:04;8.30;91.00
75769;DHT22;64379;48.888;8.330;2023-11-21T06:14:29;8.20;91.10
75769;DHT22;64379;48.888;8.330;2023-11-21T06:16:55;8.20;91.20
75769;DHT22;64379;48.888;8.330;2023-11-21T06:19:21;8.20;91.20
75769;DHT22;64379;48.888;8.330;2023-11-21T06:21:47;8.20;91.20
75769;DHT22;64379;48.888;8.330;2023-11-21T06:24:13;8.20;91.20
75769;DHT22;64379;48.888;8.330;2023-11-21T06:26:40;8.20;91.20
75769;DHT22;64379;48.888;8.330;2023-11-21T06:29:06;8.20;91.20
75769;DHT22;64379;48.888;8.330;2023-11-21T06:31:32;8.20;91.20
75769;DHT22;64379;48.888;8.330;2023-11-21T06:33:58;8.20;91.30
75769;DHT22;64379;48.888;8.330;2023-11-21T06:36:25;8.20;91.30
75769;DHT22;64379;48.888;8.330;2023-11-21T06:38:52;8.20;91.40
75769;DHT22;64379;48.888;8.330;2023-11-21T06:41:17;8.20;91.40
75769;DHT22;64379;48.888;8.330;2023-11-21T06:43:43;8.20;91.40
75769;DHT22;64379;48.888;8.330;2023-11-21T06:46:12;8.20;91.40
75769;DHT22;64379;48.888;8.330;2023-11-21T06:48:42;8.20;91.40
75769;DHT22;64379;48.888;8.330;2023-11-21T06:51:07;8.20;91.50
75769;DHT22;64379;48.888;8.330;2023-11-21T06:53:33;8.20;91.40
75769;DHT22;64379;48.888;8.330;2023-11-21T06:55:59;8.20;91.50
75769;DHT22;64379;48.888;8.330;2023-11-21T06:58:25;8.20;91.50
75769;DHT22;64379;48.888;8.330;2023-11-21T07:00:50;8.20;91.50
75769;DHT22;64379;48.888;8.330;2023-11-21T07:03:17;8.30;91.50
75769;DHT22;64379;48.888;8.330;2023-11-21T07:05:44;8.30;91.50
75769;DHT22;64379;48.888;8.330;2023-11-21T07:08:10;8.30;91.50
75769;DHT22;64379;48.888;8.330;2023-11-21T07:10:36;8.30;91.40
75769;DHT22;64379;48.888;8.330;2023-11-21T07:13:02;8.30;91.40
75769;DHT22;64379;48.888;8.330;2023-11-21T07:15:28;8.30;91.30
75769;DHT22;64379;48.888;8.330;2023-11-21T07:17:53;8.30;91.20
75769;DHT22;64379;48.888;8.330;2023-11-21T07:20:19;8.30;91.20
75769;DHT22;64379;48.888;8.330;2023-11-21T07:22:45;8.20;91.20
75769;DHT22;64379;48.888;8.330;2023-11-21T07:25:11;8.30;91.10
75769;DHT22;64379;48.888;8.330;2023-11-21T07:27:39;8.30;91.10
75769;DHT22;64379;48.888;8.330;2023-11-21T07:30:05;8.30;91.10
75769;DHT22;64379;48.888;8.330;2023-11-21T07:32:33;8.30;91.00
75769;DHT22;64379;48.888;8.330;2023-11-21T07:34:59;8.30;91.00
75769;DHT22;64379;48.888;8.330;2023-11-21T07:37:26;8.30;90.90
75769;DHT22;64379;48.888;8.330;2023-11-21T07:39:54;8.30;90.70
75769;DHT22;64379;48.888;8.330;2023-11-21T07:42:24;8.30;90.70
75769;DHT22;64379;48.888;8.330;2023-11-21T07:44:53;8.30;90.60
75769;DHT22;64379;48.888;8.330;2023-11-21T07:47:18;8.30;90.60
75769;DHT22;64379;48.888;8.330;2023-11-21T07:49:44;8.40;90.60
75769;DHT22;64379;48.888;8.330;2023-11-21T07:52:10;8.40;90.60
75769;DHT22;64379;48.888;8.330;2023-11-21T07:54:36;8.40;90.60
75769;DHT22;64379;48.888;8.330;2023-11-21T07:57:02;8.30;90.60
75769;DHT22;64379;48.888;8.330;2023-11-21T07:59:29;8.30;90.50
75769;DHT22;64379;48.888;8.330;2023-11-21T08:01:55;8.40;90.50
75769;DHT22;64379;48.888;8.330;2023-11-21T08:04:21;8.40;90.50
75769;DHT22;64379;48.888;8.330;2023-11-21T08:06:47;8.40;90.50
75769;DHT22;64379;48.888;8.330;2023-11-21T08:09:14;8.30;90.40
75769;DHT22;64379;48.888;8.330;2023-11-21T08:11:42;8.30;90.50
75769;DHT22;64379;48.888;8.330;2023-11-21T08:14:08;8.30;90.50
75769;DHT22;64379;48.888;8.330;2023-11-21T08:16:33;8.40;90.60
75769;DHT22;64379;48.888;8.330;2023-11-21T08:18:59;8.40;90.70
75769;DHT22;64379;48.888;8.330;2023-11-21T08:21:24;8.30;90.80
75769;DHT22;64379;48.888;8.330;2023-11-21T08:23:50;8.30;90.90
75769;DHT22;64379;48.888;8.330;2023-11-21T08:26:20;8.30;91.00
75769;DHT22;64379;48.888;8.330;2023-11-21T08:28:46;8.40;91.00
75769;DHT22;64379;48.888;8.330;2023-11-21T08:31:12;8.40;91.00
75769;DHT22;64379;48.888;8.330;2023-11-21T08:33:38;8.40;91.10
75769;DHT22;64379;48.888;8.330;2023-11-21T08:36:10;8.50;91.10
75769;DHT22;64379;48.888;8.330;2023-11-21T08:38:39;8.50;91.10
75769;DHT22;64379;48.888;8.330;2023-11-21T08:41:07;8.50;91.00
75769;DHT22;64379;48.888;8.330;2023-11-21T08:43:36;8.50;90.90
75769;DHT22;64379;48.888;8.330;2023-11-21T08:46:06;8.60;90.80
75769;DHT22;64379;48.888;8.330;2023-11-21T08:48:35;8.50;90.60
75769;DHT22;64379;48.888;8.330;2023-11-21T08:51:01;8.50;90.60
75769;DHT22;64379;48.888;8.330;2023-11-21T08:53:27;8.50;90.60
75769;DHT22;64379;48.888;8.330;2023-11-21T08:55:52;8.50;90.50
75769;DHT22;64379;48.888;8.330;2023-11-21T08:58:19;8.50;90.50
75769;DHT22;64379;48.888;8.330;2023-11-21T09:00:45;8.50;90.60
75769;DHT22;64379;48.888;8.330;2023-11-21T09:03:12;8.50;90.70
75769;DHT22;64379;48.888;8.330;2023-11-21T09:05:38;8.50;90.80
75769;DHT22;64379;48.888;8.330;2023-11-21T09:08:04;8.60;90.90
75769;DHT22;64379;48.888;8.330;2023-11-21T09:10:30;8.50;91.00
75769;DHT22;64379;48.888;8.330;2023-11-21T09:12:56;8.60;91.00
75769;DHT22;64379;48.888;8.330;2023-11-21T09:15:22;8.60;91.00
75769;DHT22;64379;48.888;8.330;2023-11-21T09:17:48;8.50;91.10
75769;DHT22;64379;48.888;8.330;2023-11-21T09:20:13;8.50;91.10
75769;DHT22;64379;48.888;8.330;2023-11-21T09:22:40;8.50;91.20
75769;DHT22;64379;48.888;8.330;2023-11-21T09:25:06;8.60;91.20
75769;DHT22;64379;48.888;8.330;2023-11-21T09:27:34;8.60;91.30
75769;DHT22;64379;48.888;8.330;2023-11-21T09:30:01;8.70;91.30
75769;DHT22;64379;48.888;8.330;2023-11-21T09:32:26;8.80;91.40
75769;DHT22;64379;48.888;8.330;2023-11-21T09:34:52;8.90;91.30
75769;DHT22;64379;48.888;8.330;2023-11-21T09:37:20;9.00;91.20
75769;DHT22;64379;48.888;8.330;2023-11-21T09:39:46;9.10;91.10
75769;DHT22;64379;48.888;8.330;2023-11-21T09:42:19;9.30;91.10
75769;DHT22;64379;48.888;8.330;2023-11-21T09:47:26;9.50;90.20
75769;DHT22;64379;48.888;8.330;2023-11-21T09:49:54;9.40;89.40
75769;DHT22;64379;48.888;8.330;2023-11-21T09:52:27;9.40;89.00
75769;DHT22;64379;48.888;8.330;2023-11-21T09:54:54;9.40;88.70
75769;DHT22;64379;48.888;8.330;2023-11-21T09:57:23;9.50;88.50
75769;DHT22;64379;48.888;8.330;2023-11-21T09:59:53;9.30;88.00
75769;DHT22;64379;48.888;8.330;2023-11-21T10:02:28;9.20;87.60
75769;DHT22;64379;48.888;8.330;2023-11-21T10:04:56;9.10;88.10
75769;DHT22;64379;48.888;8.330;2023-11-21T10:07:23;9.10;88.40
75769;DHT22;64379;48.888;8.330;2023-11-21T10:09:51;9.20;88.70
75769;DHT22;64379;48.888;8.330;2023-11-21T10:12:18;9.20;88.80
75769;DHT22;64379;48.888;8.330;2023-11-21T10:14:48;9.20;88.80
75769;DHT22;64379;48.888;8.330;2023-11-21T10:17:14;9.40;89.00
75769;DHT22;64379;48.888;8.330;2023-11-21T10:19:43;9.40;88.90
75769;DHT22;64379;48.888;8.330;2023-11-21T10:22:14;9.40;88.20
75769;DHT22;64379;48.888;8.330;2023-11-21T10:24:40;9.40;87.60
75769;DHT22;64379;48.888;8.330;2023-11-21T10:27:07;9.30;87.40
75769;DHT22;64379;48.888;8.330;2023-11-21T10:29:33;9.40;87.70
75769;DHT22;64379;48.888;8.330;2023-11-21T10:32:02;9.40;87.80
75769;DHT22;64379;48.888;8.330;2023-11-21T10:34:28;9.40;87.50
75769;DHT22;64379;48.888;8.330;2023-11-21T10:36:55;9.30;87.50
75769;DHT22;64379;48.888;8.330;2023-11-21T10:39:23;9.20;87.60
75769;DHT22;64379;48.888;8.330;2023-11-21T10:41:52;9.20;88.10
75769;DHT22;64379;48.888;8.330;2023-11-21T10:44:19;9.20;88.00
75769;DHT22;64379;48.888;8.330;2023-11-21T10:46:53;9.20;88.10
75769;DHT22;64379;48.888;8.330;2023-11-21T10:49:25;9.10;88.60
75769;DHT22;64379;48.888;8.330;2023-11-21T10:51:51;9.00;88.80
75769;DHT22;64379;48.888;8.330;2023-11-21T10:54:23;8.90;89.00
75769;DHT22;64379;48.888;8.330;2023-11-21T10:56:51;8.80;89.00
75769;DHT22;64379;48.888;8.330;2023-11-21T10:59:18;8.80;89.30
75769;DHT22;64379;48.888;8.330;2023-11-21T11:01:46;8.70;89.70
75769;DHT22;64379;48.888;8.330;2023-11-21T11:04:14;8.70;89.90
75769;DHT22;64379;48.888;8.330;2023-11-21T11:06:47;8.70;90.20
75769;DHT22;64379;48.888;8.330;2023-11-21T11:09:17;8.60;90.50
75769;DHT22;64379;48.888;8.330;2023-11-21T11:11:43;8.60;90.70
75769;DHT22;64379;48.888;8.330;2023-11-21T11:14:12;8.60;90.90
75769;DHT22;64379;48.888;8.330;2023-11-21T11:16:41;8.60;91.20
75769;DHT22;64379;48.888;8.330;2023-11-21T11:19:08;8.60;91.30
75769;DHT22;64379;48.888;8.330;2023-11-21T11:22:05;8.70;91.40
75769;DHT22;64379;48.888;8.330;2023-11-21T11:24:54;8.80;91.40
75769;DHT22;64379;48.888;8.330;2023-11-21T11:30:39;8.70;91.10
75769;DHT22;64379;48.888;8.330;2023-11-21T11:33:13;8.80;91.10
75769;DHT22;64379;48.888;8.330;2023-11-21T11:38:17;8.70;91.00
75769;DHT22;64379;48.888;8.330;2023-11-21T11:40:47;8.80;91.10
75769;DHT22;64379;48.888;8.330;2023-11-21T11:43:13;8.80;91.20
75769;DHT22;64379;48.888;8.330;2023-11-21T11:45:38;8.80;91.20
75769;DHT22;64379;48.888;8.330;2023-11-21T11:48:08;8.80;91.20
75769;DHT22;64379;48.888;8.330;2023-11-21T11:50:33;8.80;91.20
75769;DHT22;64379;48.888;8.330;2023-11-21T11:53:15;8.80;91.00
75769;DHT22;64379;48.888;8.330;2023-11-21T11:55:41;8.80;90.80
75769;DHT22;64379;48.888;8.330;2023-11-21T11:58:07;8.70;90.70
75769;DHT22;64379;48.888;8.330;2023-11-21T12:00:34;8.80;90.80
75769;DHT22;64379;48.888;8.330;2023-11-21T12:03:03;8.80;90.70
75769;DHT22;64379;48.888;8.330;2023-11-21T12:05:31;8.70;90.60
75769;DHT22;64379;48.888;8.330;2023-11-21T12:08:16;8.70;90.60
75769;DHT22;64379;48.888;8.330;2023-11-21T12:10:43;8.70;90.70
75769;DHT22;64379;48.888;8.330;2023-11-21T12:13:10;8.80;90.80
75769;DHT22;64379;48.888;8.330;2023-11-21T12:15:37;8.80;90.90
75769;DHT22;64379;48.888;8.330;2023-11-21T12:18:04;9.00;91.00
75769;DHT22;64379;48.888;8.330;2023-11-21T12:20:31;9.00;90.90
75769;DHT22;64379;48.888;8.330;2023-11-21T12:23:00;9.10;90.80
75769;DHT22;64379;48.888;8.330;2023-11-21T12:25:29;9.20;90.50
75769;DHT22;64379;48.888;8.330;2023-11-21T12:27:57;9.00;90.00
75769;DHT22;64379;48.888;8.330;2023-11-21T12:30:25;9.10;90.20
75769;DHT22;64379;48.888;8.330;2023-11-21T12:32:55;9.10;90.00
75769;DHT22;64379;48.888;8.330;2023-11-21T12:35:23;9.10;90.10
75769;DHT22;64379;48.888;8.330;2023-11-21T12:37:49;9.20;90.10
75769;DHT22;64379;48.888;8.330;2023-11-21T12:40:16;9.00;89.70
75769;DHT22;64379;48.888;8.330;2023-11-21T12:42:55;9.00;89.80
75769;DHT22;64379;48.888;8.330;2023-11-21T12:47:48;9.00;90.10
75769;DHT22;64379;48.888;8.330;2023-11-21T12:50:21;9.00;90.20
75769;DHT22;64379;48.888;8.330;2023-11-21T12:52:50;9.00;90.30
75769;DHT22;64379;48.888;8.330;2023-11-21T12:55:22;9.00;90.20
75769;DHT22;64379;48.888;8.330;2023-11-21T12:57:50;9.00;90.10
75769;DHT22;64379;48.888;8.330;2023-11-21T13:00:18;9.00;89.80
75769;DHT22;64379;48.888;8.330;2023-11-21T13:02:55;9.00;89.70
75769;DHT22;64379;48.888;8.330;2023-11-21T13:05:29;9.00;89.80
75769;DHT22;64379;48.888;8.330;2023-11-21T13:07:59;9.20;89.70
75769;DHT22;64379;48.888;8.330;2023-11-21T13:10:29;9.20;89.60
75769;DHT22;64379;48.888;8.330;2023-11-21T13:13:00;9.20;89.40
75769;DHT22;64379;48.888;8.330;2023-11-21T13:15:28;9.20;89.40
75769;DHT22;64379;48.888;8.330;2023-11-21T13:17:54;9.20;89.40
75769;DHT22;64379;48.888;8.330;2023-11-21T13:20:21;9.40;89.30
75769;DHT22;64379;48.888;8.330;2023-11-21T13:22:52;9.40;89.20
75769;DHT22;64379;48.888;8.330;2023-11-21T13:25:28;9.50;88.70
75769;DHT22;64379;48.888;8.330;2023-11-21T13:27:57;9.60;88.60
75769;DHT22;64379;48.888;8.330;2023-11-21T13:30:24;9.70;89.00
75769;DHT22;64379;48.888;8.330;2023-11-21T13:32:56;9.60;88.70
75769;DHT22;64379;48.888;8.330;2023-11-21T13:35:23;9.50;88.70
75769;DHT22;64379;48.888;8.330;2023-11-21T13:37:57;9.50;88.80
75769;DHT22;64379;48.888;8.330;2023-11-21T13:40:26;9.40;88.40
75769;DHT22;64379;48.888;8.330;2023-11-21T13:42:53;9.40;88.60
75769;DHT22;64379;48.888;8.330;2023-11-21T13:45:22;9.40;88.70
75769;DHT22;64379;48.888;8.330;2023-11-21T13:47:54;9.40;88.70
75769;DHT22;64379;48.888;8.330;2023-11-21T13:50:23;9.50;88.70
75769;DHT22;64379;48.888;8.330;2023-11-21T13:52:54;9.60;88.70
75769;DHT22;64379;48.888;8.330;2023-11-21T13:55:19;9.60;87.90
75769;DHT22;64379;48.888;8.330;2023-11-21T13:57:47;9.60;87.20
75769;DHT22;64379;48.888;8.330;2023-11-21T14:00:17;9.50;87.60
75769;DHT22;64379;48.888;8.330;2023-11-21T14:03:01;9.40;87.50
75769;DHT22;64379;48.888;8.330;2023-11-21T14:05:28;9.50;87.80
75769;DHT22;64379;48.888;8.330;2023-11-21T14:07:57;9.50;87.30
75769;DHT22;64379;48.888;8.330;2023-11-21T14:10:32;9.40;87.20
75769;DHT22;64379;48.888;8.330;2023-11-21T14:13:09;9.40;87.00
75769;DHT22;64379;48.888;8.330;2023-11-21T14:15:42;9.40;87.10
75769;DHT22;64379;48.888;8.330;2023-11-21T14:18:13;9.30;87.30
75769;DHT22;64379;48.888;8.330;2023-11-21T14:20:43;9.20;87.30
75769;DHT22;64379;48.888;8.330;2023-11-21T14:23:10;9.30;87.50
75769;DHT22;64379;48.888;8.330;2023-11-21T14:25:36;9.20;87.60
75769;DHT22;64379;48.888;8.330;2023-11-21T14:28:03;9.30;87.60
75769;DHT22;64379;48.888;8.330;2023-11-21T14:30:30;9.40;87.80
75769;DHT22;64379;48.888;8.330;2023-11-21T14:32:58;9.40;87.90
75769;DHT22;64379;48.888;8.330;2023-11-21T14:35:24;9.40;87.60
75769;DHT22;64379;48.888;8.330;2023-11-21T14:37:50;9.40;87.30
75769;DHT22;64379;48.888;8.330;2023-11-21T14:40:16;9.40;87.50
75769;DHT22;64379;48.888;8.330;2023-11-21T14:42:43;9.40;87.80
75769;DHT22;64379;48.888;8.330;2023-11-21T14:45:12;9.40;87.80
75769;DHT22;64379;48.888;8.330;2023-11-21T14:47:40;9.40;87.80
75769;DHT22;64379;48.888;8.330;2023-11-21T14:50:11;9.40;87.80
75769;DHT22;64379;48.888;8.330;2023-11-21T14:53:02;9.50;87.60
75769;DHT22;64379;48.888;8.330;2023-11-21T14:55:33;9.50;87.50
75769;DHT22;64379;48.888;8.330;2023-11-21T14:58:18;9.60;87.60
75769;DHT22;64379;48.888;8.330;2023-11-21T15:00:56;9.60;87.30
75769;DHT22;64379;48.888;8.330;2023-11-21T15:03:27;9.50;86.80
75769;DHT22;64379;48.888;8.330;2023-11-21T15:05:59;9.50;86.80
75769;DHT22;64379;48.888;8.330;2023-11-21T15:08:40;9.50;86.90
75769;DHT22;64379;48.888;8.330;2023-11-21T15:11:08;9.50;86.80
75769;DHT22;64379;48.888;8.330;2023-11-21T15:13:39;9.40;87.00
75769;DHT22;64379;48.888;8.330;2023-11-21T15:16:07;9.40;87.10
75769;DHT22;64379;48.888;8.330;2023-11-21T15:18:33;9.40;87.10
75769;DHT22;64379;48.888;8.330;2023-11-21T15:21:01;9.40;87.10
75769;DHT22;64379;48.888;8.330;2023-11-21T15:23:28;9.40;86.70
75769;DHT22;64379;48.888;8.330;2023-11-21T15:25:56;9.30;87.00
75769;DHT22;64379;48.888;8.330;2023-11-21T15:28:21;9.20;87.20
75769;DHT22;64379;48.888;8.330;2023-11-21T15:30:47;9.20;87.40
75769;DHT22;64379;48.888;8.330;2023-11-21T15:33:16;9.20;87.30
75769;DHT22;64379;48.888;8.330;2023-11-21T15:35:42;9.20;87.50
75769;DHT22;64379;48.888;8.330;2023-11-21T15:38:08;9.20;87.70
75769;DHT22;64379;48.888;8.330;2023-11-21T15:40:34;9.20;87.50
75769;DHT22;64379;48.888;8.330;2023-11-21T15:43:00;9.20;87.60
75769;DHT22;64379;48.888;8.330;2023-11-21T15:45:26;9.20;87.50
75769;DHT22;64379;48.888;8.330;2023-11-21T15:47:52;9.20;87.40
75769;DHT22;64379;48.888;8.330;2023-11-21T15:50:20;9.20;87.30
75769;DHT22;64379;48.888;8.330;2023-11-21T15:52:45;9.10;87.30
75769;DHT22;64379;48.888;8.330;2023-11-21T15:55:11;9.00;87.50
75769;DHT22;64379;48.888;8.330;2023-11-21T15:57:37;9.00;87.60